createdAt,value
2023-01-01T00:00:12.806Z,100095.78
2023-01-01T00:02:40.514Z,100098.47
2023-01-01T00:05:10.230Z,100098.66
2023-01-01T00:07:38.037Z,100097.44
2023-01-01T00:10:25.922Z,100089.38
2023-01-01T00:12:53.558Z,100086.28
2023-01-01T00:15:21.164Z,100094.56
2023-01-01T00:17:48.891Z,100090.00
2023-01-01T00:20:18.533Z,100092.31
2023-01-01T00:22:55.724Z,100084.41
2023-01-01T00:25:24.147Z,100084.41
2023-01-01T00:27:52.044Z,100079.03
2023-01-01T00:30:19.679Z,100082.97
2023-01-01T00:32:54.791Z,100073.22
2023-01-01T00:35:25.108Z,100074.88
2023-01-01T00:37:53.645Z,100075.09
2023-01-01T00:40:21.236Z,100074.88
2023-01-01T00:42:48.786Z,100075.53
2023-01-01T00:45:21.335Z,100078.63
2023-01-01T00:47:50.522Z,100072.00
2023-01-01T00:50:20.064Z,100080.72
2023-01-01T00:52:49.797Z,100078.66
2023-01-01T00:55:18.760Z,100083.59
2023-01-01T00:57:46.756Z,100089.41
2023-01-01T01:00:16.002Z,100082.97
2023-01-01T01:02:43.706Z,100086.09
2023-01-01T01:05:11.480Z,100091.03
2023-01-01T01:07:39.904Z,100085.88
2023-01-01T01:10:11.992Z,100097.47
2023-01-01T01:12:39.885Z,100094.78
2023-01-01T01:15:08.843Z,100096.22
2023-01-01T01:17:36.765Z,100087.75
2023-01-01T01:20:05.833Z,100092.50
2023-01-01T01:22:34.687Z,100088.78
2023-01-01T01:25:02.342Z,100096.22
2023-01-01T01:27:31.253Z,100096.19
2023-01-01T01:29:58.919Z,100100.97
2023-01-01T01:32:26.475Z,100096.81
2023-01-01T01:34:54.091Z,100097.84
2023-01-01T01:37:21.715Z,100102.38
2023-01-01T01:39:53.766Z,100103.41
2023-01-01T01:42:22.099Z,100109.19
2023-01-01T01:44:57.001Z,100112.53
2023-01-01T01:47:32.001Z,100109.63
2023-01-01T01:50:05.162Z,100104.66
2023-01-01T01:52:35.498Z,100094.94
2023-01-01T01:55:06.829Z,100102.56
2023-01-01T01:57:35.041Z,100094.69
2023-01-01T02:00:10.934Z,100102.28
2023-01-01T02:02:46.218Z,100107.03
2023-01-01T02:05:14.410Z,100106.59
2023-01-01T02:07:42.451Z,100109.91
2023-01-01T02:10:10.500Z,100117.09
2023-01-01T02:12:38.132Z,100115.84
2023-01-01T02:15:15.931Z,100115.47
2023-01-01T02:17:51.977Z,100124.56
2023-01-01T02:20:29.539Z,100123.56
2023-01-01T02:23:18.670Z,100122.59
2023-01-01T02:26:03.230Z,100130.88
2023-01-01T02:28:55.509Z,100134.81
2023-01-01T02:31:27.583Z,100134.94
2023-01-01T02:34:00.214Z,100133.50
2023-01-01T02:36:29.240Z,100136.13
2023-01-01T02:39:01.234Z,100133.63
2023-01-01T02:41:32.841Z,100135.22
2023-01-01T02:46:33.165Z,100153.75
2023-01-01T02:49:07.887Z,100155.13
2023-01-01T02:51:48.373Z,100155.16
2023-01-01T02:54:31.616Z,100160.03
2023-01-01T02:57:08.886Z,100167.84
2023-01-01T03:00:17.593Z,100163.53
2023-01-01T03:02:56.091Z,100170.28
2023-01-01T03:05:32.520Z,100171.75
2023-01-01T03:08:08.116Z,100171.41
2023-01-01T03:10:45.476Z,100176.13
2023-01-01T03:13:20.690Z,100174.81
2023-01-01T03:15:59.746Z,100160.59
2023-01-01T03:18:33.919Z,100153.00
2023-01-01T03:21:05.251Z,100155.28
2023-01-01T03:23:40.443Z,100160.88
2023-01-01T03:26:13.149Z,100165.31
2023-01-01T03:28:45.899Z,100163.00
2023-01-01T03:31:19.555Z,100158.50
2023-01-01T03:33:50.291Z,100151.94
2023-01-01T03:36:22.724Z,100153.66
2023-01-01T03:38:53.958Z,100153.44
2023-01-01T03:41:27.402Z,100162.13
2023-01-01T03:44:02.314Z,100167.69
2023-01-01T03:46:34.452Z,100165.03
2023-01-01T03:49:04.674Z,100164.03
2023-01-01T03:51:44.256Z,100169.22
2023-01-01T03:54:23.507Z,100166.16
2023-01-01T03:56:59.274Z,100164.66
2023-01-01T03:59:34.210Z,100173.75
2023-01-01T04:02:08.316Z,100171.44
2023-01-01T04:04:36.699Z,100179.31
2023-01-01T04:07:14.548Z,100173.34
2023-01-01T04:09:48.002Z,100174.56
2023-01-01T04:12:16.841Z,100167.13
2023-01-01T04:14:44.811Z,100169.66
2023-01-01T04:17:13.945Z,100165.28
2023-01-01T04:19:41.553Z,100156.44
2023-01-01T04:22:09.108Z,100155.19
2023-01-01T04:24:36.688Z,100162.69
2023-01-01T04:27:04.700Z,100159.81
2023-01-01T04:29:32.248Z,100162.72
2023-01-01T04:31:59.819Z,100161.88
2023-01-01T04:34:28.647Z,100164.09
2023-01-01T04:36:56.366Z,100163.03
2023-01-01T04:39:23.994Z,100167.59
2023-01-01T04:41:51.527Z,100168.63
2023-01-01T04:44:19.721Z,100158.03
2023-01-01T04:46:47.313Z,100161.75
2023-01-01T04:49:14.919Z,100161.56
2023-01-01T04:51:43.889Z,100161.13
2023-01-01T04:54:11.437Z,100166.94
2023-01-01T04:56:39.004Z,100173.75
2023-01-01T04:59:06.603Z,100165.44
2023-01-01T05:01:34.237Z,100167.28
2023-01-01T05:04:05.103Z,100176.34
2023-01-01T05:06:32.843Z,100177.97
2023-01-01T05:09:04.016Z,100179.56
2023-01-01T05:11:32.170Z,100192.97
2023-01-01T05:14:01.088Z,100187.16
2023-01-01T05:16:31.163Z,100191.28
2023-01-01T05:18:59.335Z,100203.88
2023-01-01T05:21:28.407Z,100202.78
2023-01-01T05:23:58.307Z,100192.44
2023-01-01T05:26:31.757Z,100211.03
2023-01-01T05:29:00.976Z,100219.38
2023-01-01T05:31:30.804Z,100217.72
2023-01-01T05:36:26.840Z,100228.44
2023-01-01T05:38:54.761Z,100227.81
2023-01-01T05:41:23.494Z,100228.03
2023-01-01T05:43:53.161Z,100221.56
2023-01-01T05:46:21.916Z,100225.03
2023-01-01T05:48:50.423Z,100217.44
2023-01-01T05:51:19.665Z,100221.97
2023-01-01T05:53:47.635Z,100228.97
2023-01-01T05:56:16.524Z,100224.16
2023-01-01T05:58:44.955Z,100226.97
2023-01-01T06:01:15.911Z,100222.19
2023-01-01T06:03:44.531Z,100223.03
2023-01-01T06:06:14.155Z,100221.38
2023-01-01T06:08:42.151Z,100227.75
2023-01-01T06:11:13.062Z,100222.00
2023-01-01T06:13:40.675Z,100225.31
2023-01-01T06:16:08.900Z,100230.06
2023-01-01T06:18:38.031Z,100232.72
2023-01-01T06:21:06.997Z,100234.69
2023-01-01T06:23:34.885Z,100234.47
2023-01-01T06:26:07.014Z,100239.81
2023-01-01T06:28:34.561Z,100249.09
2023-01-01T06:31:03.170Z,100237.06
2023-01-01T06:33:31.579Z,100246.22
2023-01-01T06:36:03.307Z,100243.00
2023-01-01T06:38:32.418Z,100243.69
2023-01-01T06:41:02.280Z,100244.34
2023-01-01T06:43:31.781Z,100253.84
2023-01-01T06:46:03.995Z,100258.50
2023-01-01T06:48:33.894Z,100261.16
2023-01-01T06:51:10.512Z,100258.41
2023-01-01T06:53:38.290Z,100267.63
2023-01-01T06:56:06.778Z,100274.84
2023-01-01T06:58:34.772Z,100274.63
2023-01-01T07:01:08.807Z,100274.41
2023-01-01T07:03:37.542Z,100280.41
2023-01-01T07:06:07.314Z,100285.16
2023-01-01T07:08:34.919Z,100278.53
2023-01-01T07:11:02.818Z,100286.78
2023-01-01T07:13:31.654Z,100280.41
2023-01-01T07:15:59.545Z,100290.31
2023-01-01T07:18:27.564Z,100284.09
2023-01-01T07:20:57.594Z,100284.72
2023-01-01T07:23:28.100Z,100284.72
2023-01-01T07:25:56.398Z,100282.81
2023-01-01T07:28:25.578Z,100285.69
2023-01-01T07:30:54.436Z,100286.78
2023-01-01T07:33:24.073Z,100284.72
2023-01-01T07:35:51.981Z,100301.22
2023-01-01T07:38:19.657Z,100300.91
2023-01-01T07:40:48.571Z,100311.28
2023-01-01T07:43:16.175Z,100325.56
2023-01-01T07:45:43.755Z,100333.53
2023-01-01T07:48:15.986Z,100331.06
2023-01-01T07:50:43.992Z,100328.41
2023-01-01T07:53:11.575Z,100329.59
2023-01-01T07:55:41.541Z,100343.44
2023-01-01T07:58:12.300Z,100346.38
2023-01-01T08:00:40.462Z,100351.59
2023-01-01T08:03:08.331Z,100346.13
2023-01-01T08:05:36.029Z,100351.16
2023-01-01T08:08:03.713Z,100346.59
2023-01-01T08:10:32.309Z,100346.63
2023-01-01T08:13:01.593Z,100324.38
2023-01-01T08:15:30.865Z,100328.81
2023-01-01T08:17:59.158Z,100341.25
2023-01-01T08:20:28.088Z,100349.97
2023-01-01T08:23:03.002Z,100360.53
2023-01-01T08:25:34.181Z,100361.28
2023-01-01T08:28:03.174Z,100360.28
2023-01-01T08:30:32.139Z,100360.97
2023-01-01T08:32:59.717Z,100355.56
2023-01-01T08:35:27.606Z,100363.25
2023-01-01T08:37:56.256Z,100360.81
2023-01-01T08:40:24.020Z,100354.03
2023-01-01T08:42:51.563Z,100371.88
2023-01-01T08:45:19.199Z,100374.78
2023-01-01T08:47:48.138Z,100372.69
2023-01-01T08:50:15.962Z,100378.97
2023-01-01T08:52:44.604Z,100373.63
2023-01-01T08:55:12.169Z,100387.75
2023-01-01T08:57:39.736Z,100386.31
2023-01-01T09:00:09.721Z,100390.50
2023-01-01T09:02:37.968Z,100386.59
2023-01-01T09:05:08.367Z,100381.19
2023-01-01T09:07:35.919Z,100382.66
2023-01-01T09:10:03.632Z,100379.56
2023-01-01T09:12:32.338Z,100381.00
2023-01-01T09:15:00.146Z,100385.16
2023-01-01T09:17:29.877Z,100394.25
2023-01-01T09:19:57.455Z,100385.38
2023-01-01T09:22:26.473Z,100388.06
2023-01-01T09:24:54.340Z,100383.28
2023-01-01T09:27:22.027Z,100392.84
2023-01-01T09:29:49.635Z,100397.19
2023-01-01T09:32:18.550Z,100407.97
2023-01-01T09:34:54.525Z,100419.38
2023-01-01T09:37:23.850Z,100413.13
2023-01-01T09:39:52.825Z,100404.41
2023-01-01T09:42:31.119Z,100407.34
2023-01-01T09:45:15.974Z,100406.09
2023-01-01T09:47:47.030Z,100404.25
2023-01-01T09:50:19.057Z,100407.75
2023-01-01T09:52:53.967Z,100405.47
2023-01-01T09:55:27.931Z,100400.50
2023-01-01T09:57:56.633Z,100406.94
2023-01-01T10:00:25.189Z,100407.75
2023-01-01T10:03:29.637Z,100403.38
2023-01-01T10:06:05.656Z,100393.88
2023-01-01T10:08:44.460Z,100379.53
2023-01-01T10:11:20.349Z,100372.69
2023-01-01T10:13:48.198Z,100385.31
2023-01-01T10:16:25.002Z,100378.88
2023-01-01T10:18:57.665Z,100375.75
2023-01-01T10:21:28.489Z,100382.34
2023-01-01T10:23:59.453Z,100380.69
2023-01-01T10:26:32.481Z,100381.00
2023-01-01T10:29:04.462Z,100377.44
2023-01-01T10:31:35.258Z,100375.97
2023-01-01T10:34:07.783Z,100377.44
2023-01-01T10:36:36.187Z,100379.13
2023-01-01T10:39:03.750Z,100367.94
2023-01-01T10:41:32.753Z,100376.66
2023-01-01T10:44:00.544Z,100384.06
2023-01-01T10:46:32.179Z,100381.16
2023-01-01T10:49:10.772Z,100389.22
2023-01-01T10:51:43.595Z,100386.09
2023-01-01T10:54:31.879Z,100368.00
2023-01-01T10:57:01.569Z,100373.28
2023-01-01T10:59:39.148Z,100366.28
2023-01-01T11:02:19.823Z,100369.00
2023-01-01T11:04:48.138Z,100373.34
2023-01-01T11:07:24.273Z,100372.69
2023-01-01T11:10:03.070Z,100374.16
2023-01-01T11:15:32.006Z,100365.91
2023-01-01T11:18:05.498Z,100358.38
2023-01-01T11:20:34.446Z,100349.13
2023-01-01T11:23:19.798Z,100342.97
2023-01-01T11:26:02.412Z,100322.69
2023-01-01T11:28:34.498Z,100325.91
2023-01-01T11:31:13.480Z,100313.72
2023-01-01T11:33:46.584Z,100315.28
2023-01-01T11:36:22.493Z,100314.63
2023-01-01T11:38:52.961Z,100313.25
2023-01-01T11:41:20.764Z,100314.41
2023-01-01T11:43:50.014Z,100312.72
2023-01-01T11:46:24.457Z,100301.28
2023-01-01T11:48:54.557Z,100310.28
2023-01-01T11:51:31.534Z,100309.47
2023-01-01T11:54:21.957Z,100305.56
2023-01-01T11:56:52.970Z,100307.50
2023-01-01T11:59:27.785Z,100307.69
2023-01-01T12:01:59.258Z,100308.34
2023-01-01T12:04:33.897Z,100309.47
2023-01-01T12:07:06.252Z,100303.72
2023-01-01T12:09:41.082Z,100314.09
2023-01-01T12:12:14.191Z,100310.78
2023-01-01T12:14:51.375Z,100325.56
2023-01-01T12:17:23.503Z,100321.25
2023-01-01T12:20:00.431Z,100321.03
2023-01-01T12:22:28.667Z,100319.25
2023-01-01T12:24:56.803Z,100310.78
2023-01-01T12:27:41.251Z,100320.50
2023-01-01T12:30:20.444Z,100327.25
2023-01-01T12:33:16.909Z,100330.78
2023-01-01T12:35:59.177Z,100328.84
2023-01-01T12:39:02.267Z,100321.25
2023-01-01T12:41:37.600Z,100329.84
2023-01-01T12:44:14.008Z,100321.59
2023-01-01T12:46:50.293Z,100323.63
2023-01-01T12:49:40.997Z,100313.13
2023-01-01T12:52:19.482Z,100310.72
2023-01-01T12:55:13.685Z,100299.97
2023-01-01T12:57:47.343Z,100297.31
2023-01-01T13:00:17.069Z,100291.88
2023-01-01T13:02:51.770Z,100292.34
2023-01-01T13:05:23.784Z,100295.28
2023-01-01T13:07:55.620Z,100294.84
2023-01-01T13:10:27.859Z,100305.50
2023-01-01T13:12:56.972Z,100305.41
2023-01-01T13:15:46.053Z,100306.69
2023-01-01T13:18:30.783Z,100302.06
2023-01-01T13:21:02.264Z,100291.38
2023-01-01T13:23:52.804Z,100306.75
2023-01-01T13:26:42.784Z,100306.91
2023-01-01T13:29:44.377Z,100304.59
2023-01-01T13:32:15.789Z,100302.44
2023-01-01T13:35:05.838Z,100301.44
2023-01-01T13:37:47.354Z,100308.13
2023-01-01T13:40:50.402Z,100307.38
2023-01-01T13:43:33.386Z,100311.38
2023-01-01T13:46:13.536Z,100309.75
2023-01-01T13:49:25.235Z,100305.88
2023-01-01T13:52:07.157Z,100307.75
2023-01-01T13:55:04.151Z,100308.03
2023-01-01T13:58:13.915Z,100304.28
2023-01-01T14:00:55.809Z,100303.66
2023-01-01T14:03:27.379Z,100305.31
2023-01-01T14:06:00.680Z,100305.56
2023-01-01T14:08:31.763Z,100304.34
2023-01-01T14:11:01.902Z,100314.09
2023-01-01T14:13:32.179Z,100299.56
2023-01-01T14:16:02.541Z,100297.75
2023-01-01T14:18:35.276Z,100300.00
2023-01-01T14:21:03.565Z,100303.53
2023-01-01T14:23:35.735Z,100314.56
2023-01-01T14:26:07.640Z,100306.22
2023-01-01T14:28:36.744Z,100315.50
2023-01-01T14:31:11.138Z,100316.53
2023-01-01T14:33:39.818Z,100321.75
2023-01-01T14:36:17.756Z,100322.94
2023-01-01T14:38:48.966Z,100325.28
2023-01-01T14:41:21.488Z,100328.88
2023-01-01T14:43:53.605Z,100322.25
2023-01-01T14:46:25.287Z,100320.59
2023-01-01T14:48:56.245Z,100314.56
2023-01-01T14:51:25.811Z,100325.38
2023-01-01T14:53:59.241Z,100328.53
2023-01-01T14:56:30.276Z,100333.09
2023-01-01T14:59:06.339Z,100324.00
2023-01-01T15:01:36.445Z,100324.59
2023-01-01T15:04:16.788Z,100320.91
2023-01-01T15:06:44.401Z,100320.94
2023-01-01T15:09:17.185Z,100321.97
2023-01-01T15:11:44.971Z,100322.81
2023-01-01T15:14:31.732Z,100328.03
2023-01-01T15:17:03.984Z,100323.47
2023-01-01T15:19:31.729Z,100333.44
2023-01-01T15:22:00.399Z,100321.22
2023-01-01T15:24:30.492Z,100318.94
2023-01-01T15:26:59.775Z,100321.47
2023-01-01T15:29:30.158Z,100306.56
2023-01-01T15:31:59.978Z,100309.88
2023-01-01T15:34:33.865Z,100318.16
2023-01-01T15:37:14.409Z,100313.38
2023-01-01T15:39:52.716Z,100323.94
2023-01-01T15:42:33.063Z,100317.50
2023-01-01T15:45:18.752Z,100317.09
2023-01-01T15:47:48.100Z,100310.03
2023-01-01T15:50:22.618Z,100312.50
2023-01-01T15:52:55.741Z,100308.16
2023-01-01T15:55:28.831Z,100311.50
2023-01-01T15:57:57.420Z,100311.91
2023-01-01T16:00:28.223Z,100316.47
2023-01-01T16:03:01.289Z,100312.56
2023-01-01T16:05:29.210Z,100309.66
2023-01-01T16:08:01.804Z,100313.19
2023-01-01T16:10:31.707Z,100317.34
2023-01-01T16:13:00.488Z,100318.81
2023-01-01T16:15:28.540Z,100319.81
2023-01-01T16:17:56.320Z,100319.41
2023-01-01T16:20:25.321Z,100314.44
2023-01-01T16:22:52.964Z,100322.13
2023-01-01T16:25:22.762Z,100301.81
2023-01-01T16:27:51.978Z,100297.03
2023-01-01T16:30:19.539Z,100295.81
2023-01-01T16:32:48.967Z,100290.41
2023-01-01T16:35:17.561Z,100291.03
2023-01-01T16:37:46.508Z,100300.16
2023-01-01T16:40:14.388Z,100301.00
2023-01-01T16:42:42.570Z,100295.41
2023-01-01T16:45:18.885Z,100296.03
2023-01-01T16:47:46.899Z,100292.94
2023-01-01T16:50:14.726Z,100298.72
2023-01-01T16:52:45.102Z,100301.41
2023-01-01T16:55:15.824Z,100308.47
2023-01-01T16:57:44.814Z,100297.91
2023-01-01T17:00:13.606Z,100301.41
2023-01-01T17:02:43.304Z,100298.13
2023-01-01T17:05:13.865Z,100300.63
2023-01-01T17:07:41.814Z,100287.53
2023-01-01T17:10:09.715Z,100285.50
2023-01-01T17:12:37.260Z,100291.72
2023-01-01T17:15:05.618Z,100286.31
2023-01-01T17:17:33.178Z,100282.16
2023-01-01T17:20:02.137Z,100289.63
2023-01-01T17:22:34.186Z,100277.19
2023-01-01T17:25:02.348Z,100274.72
2023-01-01T17:27:31.699Z,100266.22
2023-01-01T17:29:59.268Z,100265.16
2023-01-01T17:32:27.075Z,100255.66
2023-01-01T17:34:54.787Z,100242.81
2023-01-01T17:37:23.867Z,100242.00
2023-01-01T17:39:51.759Z,100240.13
2023-01-01T17:42:19.418Z,100257.31
2023-01-01T17:44:47.195Z,100267.25
2023-01-01T17:47:14.760Z,100260.00
2023-01-01T17:49:43.082Z,100251.09
2023-01-01T17:52:10.653Z,100245.72
2023-01-01T17:54:39.554Z,100246.94
2023-01-01T17:57:08.033Z,100235.78
2023-01-01T17:59:35.641Z,100257.69
2023-01-01T18:02:03.252Z,100238.66
2023-01-01T18:04:32.727Z,100250.44
2023-01-01T18:07:05.888Z,100244.25
2023-01-01T18:09:36.938Z,100249.59
2023-01-01T18:12:09.040Z,100230.53
2023-01-01T18:14:36.655Z,100216.88
2023-01-01T18:17:04.368Z,100217.53
2023-01-01T18:19:32.429Z,100205.34
2023-01-01T18:22:00.014Z,100200.53
2023-01-01T18:24:27.718Z,100199.25
2023-01-01T18:26:55.409Z,100197.44
2023-01-01T18:29:24.682Z,100196.44
2023-01-01T18:31:52.592Z,100202.38
2023-01-01T18:34:22.401Z,100203.63
2023-01-01T18:36:50.470Z,100198.47
2023-01-01T18:39:22.721Z,100203.63
2023-01-01T18:42:34.741Z,100200.53
2023-01-01T18:45:14.480Z,100201.78
2023-01-01T18:47:42.635Z,100189.97
2023-01-01T18:50:23.851Z,100191.59
2023-01-01T18:52:54.300Z,100189.34
2023-01-01T18:55:28.186Z,100192.25
2023-01-01T18:58:00.556Z,100189.56
2023-01-01T19:00:33.620Z,100186.03
2023-01-01T19:03:03.590Z,100168.66
2023-01-01T19:05:33.368Z,100161.19
2023-01-01T19:08:11.253Z,100160.34
2023-01-01T19:10:45.929Z,100160.56
2023-01-01T19:13:19.911Z,100147.31
2023-01-01T19:15:53.729Z,100143.78
2023-01-01T19:18:24.093Z,100153.94
2023-01-01T19:20:59.220Z,100158.72
2023-01-01T19:23:26.828Z,100149.56
2023-01-01T19:26:01.406Z,100154.78
2023-01-01T19:28:36.684Z,100152.09
2023-01-01T19:31:07.354Z,100141.31
2023-01-01T19:33:35.401Z,100140.69
2023-01-01T19:36:02.992Z,100133.03
2023-01-01T19:38:31.377Z,100133.66
2023-01-01T19:40:58.971Z,100125.97
2023-01-01T19:43:26.834Z,100122.03
2023-01-01T19:45:54.677Z,100118.31
2023-01-01T19:48:23.819Z,100125.34
2023-01-01T19:50:52.443Z,100131.75
2023-01-01T19:53:20.291Z,100131.78
2023-01-01T19:55:47.864Z,100125.94
2023-01-01T19:58:16.101Z,100122.81
2023-01-01T20:00:44.041Z,100119.97
2023-01-01T20:03:52.249Z,100119.53
2023-01-01T20:06:04.620Z,100129.69
2023-01-01T20:08:33.402Z,100130.50
2023-01-01T20:11:01.762Z,100129.50
2023-01-01T20:13:29.319Z,100124.13
2023-01-01T20:15:58.037Z,100126.19
2023-01-01T20:18:25.886Z,100128.44
2023-01-01T20:21:11.454Z,100124.94
2023-01-01T20:23:40.386Z,100119.13
2023-01-01T20:26:09.508Z,100104.81
2023-01-01T20:28:54.957Z,100110.63
2023-01-01T20:31:22.839Z,100121.03
2023-01-01T20:33:51.420Z,100119.50
2023-01-01T20:36:36.678Z,100128.03
2023-01-01T20:39:08.056Z,100117.25
2023-01-01T20:41:35.597Z,100125.94
2023-01-01T20:44:03.170Z,100129.28
2023-01-01T20:46:31.154Z,100129.28
2023-01-01T20:48:59.122Z,100118.91
2023-01-01T20:51:26.894Z,100125.34
2023-01-01T20:53:56.849Z,100119.56
2023-01-01T20:56:26.813Z,100120.19
2023-01-01T20:59:04.401Z,100127.25
2023-01-01T21:01:40.733Z,100127.66
2023-01-01T21:04:08.356Z,100133.66
2023-01-01T21:06:36.331Z,100129.31
2023-01-01T21:09:04.998Z,100133.25
2023-01-01T21:11:36.511Z,100126.22
2023-01-01T21:14:06.569Z,100126.00
2023-01-01T21:16:36.927Z,100133.03
2023-01-01T21:19:07.952Z,100135.94
2023-01-01T21:21:43.460Z,100126.63
2023-01-01T21:24:19.924Z,100129.53
2023-01-01T21:26:58.434Z,100136.34
2023-01-01T21:29:26.971Z,100136.53
2023-01-01T21:32:06.798Z,100128.88
2023-01-01T21:34:40.705Z,100126.41
2023-01-01T21:37:14.536Z,100126.59
2023-01-01T21:39:42.880Z,100122.47
2023-01-01T21:42:23.422Z,100126.19
2023-01-01T21:44:59.078Z,100131.59
2023-01-01T21:47:28.014Z,100133.03
2023-01-01T21:49:57.280Z,100137.81
2023-01-01T21:52:26.153Z,100143.84
2023-01-01T21:54:55.581Z,100150.03
2023-01-01T21:57:26.261Z,100134.09
2023-01-01T21:59:54.801Z,100133.91
2023-01-01T22:02:32.654Z,100129.75
2023-01-01T22:05:02.094Z,100144.63
2023-01-01T22:10:26.438Z,100141.13
2023-01-01T22:12:59.504Z,100133.84
2023-01-01T22:15:40.241Z,100137.38
2023-01-01T22:18:24.037Z,100141.94
2023-01-01T22:20:54.763Z,100150.00
2023-01-01T22:23:37.896Z,100149.41
2023-01-01T22:26:18.620Z,100151.47
2023-01-01T22:28:52.027Z,100153.94
2023-01-01T22:31:24.538Z,100149.00
2023-01-01T22:33:53.839Z,100145.28
2023-01-01T22:36:27.687Z,100138.03
2023-01-01T22:39:05.705Z,100133.88
2023-01-01T22:41:34.118Z,100135.53
2023-01-01T22:44:05.342Z,100137.63
2023-01-01T22:46:37.195Z,100140.31
2023-01-01T22:49:18.035Z,100132.03
2023-01-01T22:51:47.244Z,100134.28
2023-01-01T22:54:14.846Z,100145.69
2023-01-01T22:56:42.501Z,100147.13
2023-01-01T22:59:11.421Z,100134.72
2023-01-01T23:01:39.126Z,100143.00
2023-01-01T23:04:06.832Z,100134.50
2023-01-01T23:06:34.517Z,100129.31
2023-01-01T23:09:02.151Z,100127.47
2023-01-01T23:11:29.719Z,100130.16
2023-01-01T23:14:14.823Z,100138.44
2023-01-01T23:16:43.739Z,100146.94
2023-01-01T23:19:11.376Z,100148.56
2023-01-01T23:21:41.120Z,100137.16
2023-01-01T23:24:12.565Z,100125.81
2023-01-01T23:26:43.335Z,100120.81
2023-01-01T23:29:12.281Z,100123.28
2023-01-01T23:31:41.019Z,100120.59
2023-01-01T23:34:10.301Z,100123.91
2023-01-01T23:36:38.858Z,100123.47
2023-01-01T23:39:06.434Z,100124.72
2023-01-01T23:41:34.014Z,100123.09
2023-01-01T23:44:01.507Z,100124.31
2023-01-01T23:46:29.284Z,100115.44
2023-01-01T23:48:56.927Z,100112.97
2023-01-01T23:51:25.899Z,100106.78
2023-01-01T23:53:53.486Z,100109.25
2023-01-01T23:56:21.019Z,100107.81
2023-01-01T23:58:48.567Z,100104.47
